Time;durP1;ratioP1;P1;durP2;ratioP2;P2;SDS_P1;SDS_P2;PMS_P1;PMS_P2;Temp;Humidity;BMP_temperature;BMP_pressure;BME280_temperature;BME280_humidity;BME280_pressure;Samples;Min_cycle;Max_cycle;Signal;HPM_P1;HPM_P2
2022/06/12 00:00:30;;;;;;;9.38;3.22;;;;;;;16.80;100.00;102089.25;10222240;28;20061;-70
2022/06/12 00:05:30;;;;;;;11.75;3.35;;;;;;;16.77;100.00;102092.63;10223876;28;20133;-69
2022/06/12 00:10:27;;;;;;;12.18;3.35;;;;;;;16.69;100.00;102090.72;10226172;28;20069;-70
2022/06/12 00:15:28;;;;;;;7.63;2.97;;;;;;;16.62;100.00;102099.47;10222792;28;20045;-70
2022/06/12 00:20:26;;;;;;;8.85;3.58;;;;;;;16.60;100.00;102097.03;10227994;28;20107;-70
2022/06/12 00:25:26;;;;;;;9.68;2.83;;;;;;;16.53;100.00;102093.94;10229199;28;20144;-70
2022/06/12 00:30:25;;;;;;;11.75;3.22;;;;;;;16.48;100.00;102101.59;10220997;28;20085;-69
2022/06/12 00:35:32;;;;;;;10.80;3.28;;;;;;;16.46;100.00;102103.88;10231005;28;20064;-70
2022/06/12 00:40:29;;;;;;;9.57;2.85;;;;;;;16.37;100.00;102095.56;10226918;28;20053;-70
2022/06/12 00:45:47;;;;;;;11.23;3.15;;;;;;;16.29;100.00;102099.13;10224483;28;20124;-70
2022/06/12 00:50:51;;;;;;;11.38;3.20;;;;;;;16.20;100.00;102097.19;10221311;28;20053;-69
2022/06/12 00:56:14;;;;;;;10.90;3.25;;;;;;;16.12;100.00;102095.19;10222229;28;20076;-70
2022/06/12 01:01:18;;;;;;;14.60;3.20;;;;;;;16.03;100.00;102091.63;10227590;28;20096;-69
2022/06/12 01:11:30;;;;;;;14.45;3.20;;;;;;;15.90;100.00;102092.59;10227766;28;20177;-70
2022/06/12 01:16:26;;;;;;;12.98;3.35;;;;;;;15.84;100.00;102088.34;10227488;28;20072;-70
2022/06/12 01:21:33;;;;;;;12.88;3.42;;;;;;;15.78;100.00;102082.13;10232140;28;20072;-70
2022/06/12 01:26:48;;;;;;;11.95;3.55;;;;;;;15.71;100.00;102093.66;10233287;28;20045;-69
2022/06/12 01:32:10;;;;;;;11.80;4.07;;;;;;;15.65;100.00;102083.06;10226969;28;20137;-70
2022/06/12 01:37:28;;;;;;;11.52;3.25;;;;;;;15.57;100.00;102079.13;10228712;28;20045;-70
2022/06/12 01:42:35;;;;;;;10.20;3.80;;;;;;;15.51;100.00;102074.91;10230823;28;20466;-71
2022/06/12 01:47:40;;;;;;;13.60;4.22;;;;;;;15.45;100.00;102076.16;10225980;28;20478;-70
2022/06/12 01:52:53;;;;;;;16.23;5.50;;;;;;;15.39;100.00;102071.91;10225382;28;20096;-70
2022/06/12 01:57:57;;;;;;;14.10;4.75;;;;;;;15.38;100.00;102075.81;10222247;28;20141;-69
2022/06/12 02:03:01;;;;;;;12.10;4.32;;;;;;;15.35;100.00;102078.06;10230424;28;20128;-71
2022/06/12 02:08:09;;;;;;;12.35;4.47;;;;;;;15.32;100.00;102073.19;10224811;28;20057;-70
2022/06/12 02:13:12;;;;;;;15.98;4.80;;;;;;;15.28;100.00;102065.88;10222986;28;20041;-71
2022/06/12 02:18:19;;;;;;;;;;;;;;;15.20;100.00;102070.22;10219879;28;20599;-71
2022/06/12 02:23:24;;;;;;;16.38;4.15;;;;;;;15.08;100.00;102075.50;10226541;28;20022;-71
2022/06/12 02:28:30;;;;;;;16.98;5.35;;;;;;;15.04;100.00;102080.00;10220312;28;20084;-70
2022/06/12 02:33:37;;;;;;;14.07;4.85;;;;;;;14.97;100.00;102071.38;10221582;28;20492;-71
2022/06/12 02:38:43;;;;;;;11.40;4.40;;;;;;;14.89;100.00;102082.00;10222488;28;20041;-70
2022/06/12 02:43:44;;;;;;;13.05;4.35;;;;;;;14.84;100.00;102065.63;10227902;28;20063;-70
2022/06/12 02:48:41;;;;;;;12.85;4.18;;;;;;;14.77;100.00;102073.53;10226327;28;20107;-70
2022/06/12 02:53:48;;;;;;;12.05;4.28;;;;;;;14.70;100.00;102057.44;10219791;28;20072;-71
2022/06/12 02:58:58;;;;;;;13.30;5.05;;;;;;;14.65;100.00;102056.75;10221539;28;20387;-70
2022/06/12 03:04:19;;;;;;;11.77;4.78;;;;;;;14.61;100.00;102058.50;10214757;28;20047;-71
2022/06/12 03:09:16;;;;;;;12.73;4.90;;;;;;;14.52;100.00;102050.94;10224441;28;20045;-70
2022/06/12 03:14:16;;;;;;;10.90;3.75;;;;;;;14.48;100.00;102049.97;10216710;28;20099;-71
2022/06/12 03:19:23;;;;;;;14.48;5.38;;;;;;;14.46;100.00;102052.22;10227614;28;20084;-70
2022/06/12 03:24:57;;;;;;;11.13;4.30;;;;;;;14.48;100.00;102052.72;10218620;28;20690;-70
2022/06/12 03:30:17;;;;;;;10.43;4.20;;;;;;;14.49;100.00;102046.09;10219254;28;20061;-70
2022/06/12 03:35:58;;;;;;;14.75;4.78;;;;;;;14.49;100.00;102054.34;10223138;28;20103;-70
2022/06/12 03:41:09;;;;;;;10.50;4.32;;;;;;;14.45;100.00;102056.09;10216425;28;20073;-69
2022/06/12 03:46:13;;;;;;;11.38;3.80;;;;;;;14.43;100.00;102063.84;10225175;28;20124;-71
2022/06/12 03:51:18;;;;;;;11.13;4.82;;;;;;;14.44;100.00;102070.97;10212999;28;20045;-70
2022/06/12 04:01:42;;;;;;;12.20;4.60;;;;;;;14.39;100.00;102062.84;10216907;28;20537;-69
2022/06/12 04:06:40;;;;;;;12.70;4.53;;;;;;;14.41;100.00;102066.09;10222311;28;20736;-70
2022/06/12 04:11:39;;;;;;;11.73;4.65;;;;;;;14.41;100.00;102060.59;10220545;28;20560;-69
2022/06/12 04:16:44;;;;;;;16.67;4.70;;;;;;;14.43;100.00;102063.84;10230564;28;20053;-71
2022/06/12 04:21:47;;;;;;;13.98;4.72;;;;;;;14.45;100.00;102064.34;10221577;28;20053;-71
2022/06/12 04:26:52;;;;;;;13.45;4.25;;;;;;;14.45;100.00;102061.59;10221507;28;20053;-69
2022/06/12 04:31:53;;;;;;;10.10;4.45;;;;;;;14.49;100.00;102059.84;10226596;28;20069;-70
2022/06/12 04:36:53;;;;;;;11.27;4.53;;;;;;;14.51;100.00;102071.34;10229457;28;20136;-70
2022/06/12 04:41:50;;;;;;;12.98;4.72;;;;;;;14.55;100.00;102055.06;10229987;28;20080;-70
2022/06/12 04:46:50;;;;;;;10.50;4.63;;;;;;;14.61;100.00;102056.56;10228815;28;20850;-70
2022/06/12 04:51:49;;;;;;;12.75;4.13;;;;;;;14.67;100.00;102051.75;10223958;28;20128;-69
2022/06/12 04:56:45;;;;;;;15.82;4.57;;;;;;;14.79;100.00;102049.25;10224640;28;20046;-69
2022/06/12 05:01:42;;;;;;;14.80;3.85;;;;;;;14.84;100.00;102046.34;10229591;28;20041;-69
2022/06/12 05:06:41;;;;;;;9.98;3.05;;;;;;;14.98;100.00;102040.78;10223784;28;20045;-70
2022/06/12 05:11:37;;;;;;;12.93;3.85;;;;;;;15.08;100.00;102034.97;10222592;28;20493;-69
2022/06/12 05:16:50;;;;;;;13.45;3.30;;;;;;;15.21;100.00;102027.75;10210447;28;20156;-69
2022/06/12 05:21:46;;;;;;;9.37;3.50;;;;;;;15.31;100.00;102023.91;10214315;28;20126;-68
2022/06/12 05:26:46;;;;;;;13.55;3.08;;;;;;;15.39;100.00;102027.81;10210970;28;20050;-69
2022/06/12 05:31:44;;;;;;;12.27;3.95;;;;;;;15.48;100.00;102035.00;10214081;28;20049;-69
2022/06/12 05:36:41;;;;;;;10.38;2.75;;;;;;;15.55;100.00;102037.31;10209575;28;20223;-69
2022/06/12 05:41:38;;;;;;;12.15;3.17;;;;;;;15.66;100.00;102026.78;10214864;28;20136;-69
2022/06/12 05:46:34;;;;;;;10.65;2.70;;;;;;;15.75;100.00;102020.19;10222475;28;20072;-69
2022/06/12 05:51:31;;;;;;;10.15;1.67;;;;;;;15.88;100.00;102017.63;10229048;28;20045;-70
2022/06/12 05:56:30;;;;;;;12.50;2.35;;;;;;;16.01;100.00;102016.63;10223785;28;20200;-70
2022/06/12 06:01:29;;;;;;;10.88;2.70;;;;;;;16.11;100.00;102016.34;10226953;28;20452;-71
2022/06/12 06:06:34;;;;;;;11.35;2.50;;;;;;;16.18;100.00;102024.13;10222240;28;20124;-72
2022/06/12 06:11:31;;;;;;;12.57;2.95;;;;;;;16.32;100.00;102023.97;10228041;28;20053;-71
2022/06/12 06:16:27;;;;;;;11.13;2.83;;;;;;;16.44;100.00;102026.88;10222117;28;20463;-70
2022/06/12 06:21:24;;;;;;;11.48;2.20;;;;;;;16.55;100.00;102019.91;10221847;28;20052;-71
2022/06/12 06:26:22;;;;;;;12.18;2.15;;;;;;;16.59;100.00;102020.88;10228127;28;20120;-70
2022/06/12 06:31:19;;;;;;;9.73;2.40;;;;;;;16.73;100.00;102008.81;10219084;28;20057;-70
2022/06/12 06:36:16;;;;;;;10.27;2.20;;;;;;;16.82;100.00;102017.91;10225515;28;20064;-71
2022/06/12 06:41:14;;;;;;;10.85;2.13;;;;;;;16.94;100.00;102009.78;10227780;28;20561;-70
2022/06/12 06:46:13;;;;;;;12.00;2.40;;;;;;;17.06;100.00;102016.53;10217052;28;20103;-70
2022/06/12 06:51:10;;;;;;;12.65;2.03;;;;;;;17.15;100.00;102003.50;10226058;28;20046;-69
2022/06/12 06:56:07;;;;;;;11.05;2.80;;;;;;;17.25;100.00;102008.69;10223128;28;20095;-71
2022/06/12 07:01:04;;;;;;;8.80;1.70;;;;;;;17.36;100.00;102001.63;10224222;28;20077;-71
2022/06/12 07:06:02;;;;;;;13.05;2.65;;;;;;;17.43;100.00;102004.69;10223637;28;20509;-71
2022/06/12 07:10:58;;;;;;;12.20;2.30;;;;;;;17.51;100.00;101999.44;10228004;28;20111;-72
2022/06/12 07:15:55;;;;;;;10.57;2.20;;;;;;;17.64;100.00;102009.47;10218497;28;20133;-70
2022/06/12 07:20:54;;;;;;;8.60;2.47;;;;;;;17.70;100.00;102002.56;10215293;28;20060;-70
2022/06/12 07:25:55;;;;;;;14.23;3.22;;;;;;;17.85;100.00;101993.72;10226213;28;20087;-71
2022/06/12 07:30:52;;;;;;;8.88;1.90;;;;;;;17.92;96.16;101993.19;10226384;28;20480;-70
2022/06/12 07:35:49;;;;;;;9.25;1.73;;;;;;;18.03;98.39;101990.81;10211813;28;20541;-70
2022/06/12 07:40:50;;;;;;;9.90;1.85;;;;;;;18.12;98.19;101997.06;10200610;28;20461;-70
2022/06/12 07:45:47;;;;;;;11.73;1.98;;;;;;;18.19;95.82;101991.81;10209338;28;20525;-70
2022/06/12 07:50:43;;;;;;;9.85;1.83;;;;;;;18.30;91.86;101987.47;10220999;28;20446;-70
2022/06/12 07:55:40;;;;;;;6.55;1.40;;;;;;;18.35;93.67;101982.88;10215206;28;20081;-69
2022/06/12 08:00:38;;;;;;;11.63;1.67;;;;;;;18.45;89.99;101993.53;10210827;28;20137;-68
2022/06/12 08:05:36;;;;;;;6.28;1.77;;;;;;;18.54;92.83;101991.47;10209505;28;20141;-69
2022/06/12 08:10:33;;;;;;;8.50;1.60;;;;;;;18.58;88.99;101992.44;10213632;28;20042;-69
2022/06/12 08:15:29;;;;;;;12.90;2.20;;;;;;;18.74;84.25;101989.81;10206028;28;20077;-68
2022/06/12 08:20:28;;;;;;;7.78;1.90;;;;;;;18.86;86.65;101997.38;10207335;28;20553;-68
2022/06/12 08:25:27;;;;;;;9.63;2.00;;;;;;;18.98;82.90;102000.16;10199291;28;20052;-69
2022/06/12 08:30:24;;;;;;;6.15;2.10;;;;;;;19.14;83.61;101994.75;10203167;28;20125;-68
2022/06/12 08:35:27;;;;;;;7.30;1.80;;;;;;;19.25;79.85;101976.50;10204503;28;20041;-68
2022/06/12 08:40:32;;;;;;;7.53;1.35;;;;;;;19.31;79.20;101975.13;10205961;28;20124;-69
2022/06/12 08:45:36;;;;;;;6.43;1.45;;;;;;;19.45;77.67;101968.44;10193467;28;20084;-69
2022/06/12 08:50:40;;;;;;;7.30;2.10;;;;;;;19.52;77.46;101958.34;10210115;28;20402;-69
2022/06/12 08:56:04;;;;;;;7.50;1.10;;;;;;;19.75;76.27;101972.56;10199604;28;20046;-69
2022/06/12 09:01:01;;;;;;;7.28;1.25;;;;;;;19.88;75.64;101965.00;10204225;28;20077;-68
2022/06/12 09:06:09;;;;;;;53.67;24.00;;;;;;;19.89;74.71;101961.09;10206788;28;20133;-68
2022/06/12 09:11:12;;;;;;;9.77;2.40;;;;;;;19.91;75.23;101953.22;10206131;28;20088;-68
2022/06/12 09:16:22;;;;;;;8.95;2.42;;;;;;;20.10;74.34;101943.44;10219973;28;20096;-70
2022/06/12 09:21:52;;;;;;;5.90;1.20;;;;;;;20.23;72.18;101942.19;10214202;28;20076;-70
2022/06/12 09:27:24;;;;;;;7.82;1.70;;;;;;;20.50;71.71;101939.75;10208653;28;20069;-70
2022/06/12 09:32:41;;;;;;;9.45;2.00;;;;;;;20.67;73.50;101945.00;10209076;28;20042;-70
2022/06/12 09:43:32;;;;;;;9.10;2.17;;;;;;;20.95;69.52;101933.00;10215253;28;20544;-70
2022/06/12 09:48:45;;;;;;;6.13;1.70;;;;;;;21.22;66.36;101926.50;10219918;28;21357;-70
2022/06/12 09:54:22;;;;;;;7.57;1.13;;;;;;;21.47;64.05;101923.53;10217777;28;20492;-71
2022/06/12 09:59:39;;;;;;;7.78;1.33;;;;;;;21.59;61.99;101917.81;10224298;28;20125;-70
2022/06/12 10:04:45;;;;;;;8.07;1.85;;;;;;;21.55;61.31;101916.13;10214466;28;20141;-70
2022/06/12 10:09:54;;;;;;;7.38;1.60;;;;;;;21.61;58.03;101917.47;10226426;28;20684;-68
2022/06/12 10:14:58;;;;;;;11.55;1.90;;;;;;;22.21;52.52;101914.31;10217771;28;20042;-68
2022/06/12 10:20:06;;;;;;;6.53;1.20;;;;;;;23.06;50.49;101897.50;10210232;28;20137;-68
2022/06/12 10:25:05;;;;;;;8.88;1.67;;;;;;;23.34;47.21;101902.69;10204125;28;20046;-68
2022/06/12 10:30:03;;;;;;;6.47;1.27;;;;;;;24.21;46.16;101894.22;10215979;28;20132;-70
2022/06/12 10:35:16;;;;;;;8.40;1.35;;;;;;;25.54;43.92;101903.66;10209800;28;20422;-71
2022/06/12 10:40:21;;;;;;;10.20;1.40;;;;;;;25.30;41.07;101889.16;10204572;28;20796;-69
2022/06/12 10:45:20;;;;;;;9.55;1.75;;;;;;;24.90;43.16;101885.25;10206885;28;20057;-69
2022/06/12 10:50:30;;;;;;;8.73;1.65;;;;;;;25.90;42.64;101879.44;10219254;28;20551;-70
2022/06/12 10:56:16;;;;;;;5.22;1.30;;;;;;;26.03;41.75;101865.84;10220060;28;20046;-69
2022/06/12 11:01:27;;;;;;;8.13;1.25;;;;;;;25.48;41.09;101868.81;10199504;28;20049;-69
2022/06/12 11:06:48;;;;;;;6.35;1.75;;;;;;;26.00;38.49;101872.25;10207054;28;20049;-70
2022/06/12 11:12:33;;;;;;;6.15;1.17;;;;;;;25.94;36.98;101865.41;10201852;28;20077;-70
2022/06/12 11:17:48;;;;;;;8.70;1.60;;;;;;;27.47;38.23;101839.28;10198086;28;20064;-69
2022/06/12 11:23:15;;;;;;;6.93;1.20;;;;;;;26.87;35.64;101857.09;10211468;28;20068;-70
2022/06/12 11:28:56;;;;;;;7.55;1.38;;;;;;;27.97;34.84;101837.47;10201117;28;20120;-68
2022/06/12 11:34:30;;;;;;;6.70;1.20;;;;;;;25.86;35.47;101846.97;10212034;28;20563;-69
2022/06/12 11:39:49;;;;;;;7.32;1.10;;;;;;;24.79;38.70;101839.63;10216969;28;20524;-69
2022/06/12 11:45:08;;;;;;;5.95;1.45;;;;;;;24.13;40.88;101842.22;10214335;28;20071;-69
2022/06/12 11:50:19;;;;;;;12.63;1.80;;;;;;;24.08;42.07;101834.19;10216145;28;20057;-69
2022/06/12 11:55:24;;;;;;;9.20;1.30;;;;;;;24.08;41.68;101826.59;10223846;28;20084;-69
2022/06/12 12:00:34;;;;;;;6.55;1.10;;;;;;;24.83;41.04;101823.66;10221861;28;20046;-69
2022/06/12 12:05:50;;;;;;;7.47;1.20;;;;;;;25.83;38.19;101812.94;10207533;28;20445;-70
2022/06/12 12:11:00;;;;;;;9.27;1.58;;;;;;;25.30;38.29;101807.19;10211053;28;20073;-70
2022/06/12 12:16:03;;;;;;;9.88;1.67;;;;;;;26.09;37.31;101802.59;10210048;28;20776;-70
2022/06/12 12:21:03;;;;;;;7.85;1.23;;;;;;;26.48;37.66;101799.00;10207903;28;20153;-70
2022/06/12 12:26:11;;;;;;;6.82;1.30;;;;;;;26.47;36.24;101797.41;10216356;28;20057;-70
2022/06/12 12:31:12;;;;;;;4.63;1.15;;;;;;;25.56;37.71;101792.88;10226564;28;20398;-70
2022/06/12 12:41:40;;;;;;;7.28;1.20;;;;;;;24.34;37.40;101797.72;10215828;28;20076;-70
2022/06/12 12:46:44;;;;;;;5.73;0.93;;;;;;;23.71;39.23;101805.06;10225186;28;20065;-69
2022/06/12 12:51:41;;;;;;;7.47;1.35;;;;;;;23.36;41.72;101788.69;10222163;28;20452;-69
2022/06/12 12:56:53;;;;;;;7.60;1.15;;;;;;;23.12;45.36;101809.53;10222661;28;20073;-69
2022/06/12 13:01:51;;;;;;;9.63;2.00;;;;;;;23.04;50.30;101791.88;10225798;28;20165;-69
2022/06/12 13:07:06;;;;;;;10.43;2.03;;;;;;;22.86;51.84;101797.19;10223804;28;20550;-69
2022/06/12 13:12:24;;;;;;;8.88;1.70;;;;;;;22.57;56.19;101797.94;10224336;28;20092;-70
2022/06/12 13:17:30;;;;;;;6.68;1.35;;;;;;;22.55;60.03;101806.66;10214842;28;20339;-70
2022/06/12 13:22:43;;;;;;;7.00;2.40;;;;;;;22.73;63.27;101787.41;10227721;28;20049;-69
2022/06/12 13:27:53;;;;;;;11.32;2.25;;;;;;;22.59;60.06;101784.44;10214772;28;20699;-69
2022/06/12 13:32:50;;;;;;;9.82;2.35;;;;;;;22.27;69.15;101790.28;10224008;28;20069;-70
2022/06/12 13:38:01;;;;;;;10.07;2.03;;;;;;;21.88;79.27;101797.91;10220684;28;20140;-69
2022/06/12 13:43:11;;;;;;;;;;;;;;;21.56;84.56;101801.69;10221733;28;20599;-69
2022/06/12 13:48:24;;;;;;;6.45;1.45;;;;;;;21.52;87.65;101795.25;10227201;28;19932;-69
2022/06/12 13:53:21;;;;;;;6.50;2.10;;;;;;;21.54;86.21;101792.09;10218253;28;20747;-69
2022/06/12 13:58:32;;;;;;;8.23;1.98;;;;;;;21.69;89.94;101782.03;10219806;28;20125;-69
2022/06/12 14:03:35;;;;;;;8.32;1.83;;;;;;;21.66;82.38;101766.09;10215672;28;20493;-69
2022/06/12 14:08:35;;;;;;;8.65;2.85;;;;;;;22.22;82.90;101774.69;10213779;28;20045;-69
2022/06/12 14:13:43;;;;;;;8.82;2.20;;;;;;;22.42;75.63;101769.84;10219666;28;20080;-70
2022/06/12 14:18:53;;;;;;;8.77;2.22;;;;;;;22.34;74.90;101779.25;10201625;28;20037;-69
2022/06/12 14:24:02;;;;;;;8.90;1.90;;;;;;;22.20;73.33;101779.78;10205959;28;20081;-69
2022/06/12 14:29:00;;;;;;;8.38;2.70;;;;;;;21.99;74.37;101791.34;10212446;28;20107;-70
2022/06/12 14:34:19;;;;;;;11.88;2.72;;;;;;;21.46;80.08;101807.81;10203842;28;20560;-69
2022/06/12 14:39:21;;;;;;;11.88;2.25;;;;;;;20.02;100.00;101836.13;10208496;28;20038;-69
2022/06/12 14:44:18;;;;;;;10.30;2.43;;;;;;;19.04;100.00;101838.03;10206719;28;20045;-69
2022/06/12 14:49:18;;;;;;;9.43;2.95;;;;;;;18.71;100.00;101830.63;10218870;28;20466;-69
2022/06/12 14:54:14;;;;;;;8.93;2.00;;;;;;;18.56;100.00;101828.53;10221842;28;20057;-69
2022/06/12 14:59:26;;;;;;;11.27;2.50;;;;;;;18.71;100.00;101830.63;10223582;28;20782;-69
2022/06/12 15:04:23;;;;;;;7.88;2.50;;;;;;;18.66;100.00;101835.63;10215509;28;20128;-69
2022/06/12 15:09:19;;;;;;;9.85;2.70;;;;;;;18.41;100.00;101818.16;10215566;28;20046;-69
2022/06/12 15:14:18;;;;;;;6.28;1.90;;;;;;;18.44;100.00;101826.56;10213740;28;20077;-68
2022/06/12 15:19:14;;;;;;;8.48;1.75;;;;;;;18.46;100.00;101817.94;10214781;28;20737;-69
2022/06/12 15:24:20;;;;;;;9.77;2.90;;;;;;;18.80;100.00;101810.34;10208726;28;20091;-69
2022/06/12 15:34:33;;;;;;;7.88;2.03;;;;;;;19.64;100.00;101812.47;10195137;28;20046;-69
2022/06/12 15:39:29;;;;;;;10.02;2.10;;;;;;;19.50;97.43;101815.63;10196905;28;20057;-68
2022/06/12 15:44:26;;;;;;;7.82;1.70;;;;;;;19.45;98.15;101805.59;10202334;28;20131;-69
2022/06/12 15:49:23;;;;;;;8.40;2.40;;;;;;;19.21;96.15;101808.44;10198181;28;20512;-69
2022/06/12 15:54:21;;;;;;;5.80;1.88;;;;;;;19.07;99.06;101798.53;10212726;28;20084;-69
2022/06/12 15:59:17;;;;;;;8.55;2.50;;;;;;;19.10;97.72;101797.84;10214462;28;20073;-69
2022/06/12 16:04:14;;;;;;;6.82;2.40;;;;;;;20.38;87.43;101772.00;10220804;28;20076;-69
2022/06/12 16:09:11;;;;;;;8.20;3.15;;;;;;;21.62;82.89;101780.72;10228497;28;20433;-69
2022/06/12 16:14:08;;;;;;;9.77;3.20;;;;;;;22.29;71.62;101774.00;10219050;28;20045;-69
2022/06/12 16:19:06;;;;;;;7.85;2.67;;;;;;;22.74;66.66;101780.66;10211924;28;20493;-69
2022/06/12 16:24:02;;;;;;;7.85;2.08;;;;;;;23.04;64.38;101769.56;10222392;28;20111;-69
2022/06/12 16:28:59;;;;;;;6.07;1.50;;;;;;;22.96;57.27;101776.19;10223792;28;20567;-70
2022/06/12 16:33:56;;;;;;;8.25;1.98;;;;;;;23.12;57.48;101766.88;10219607;28;21084;-70
2022/06/12 16:38:52;;;;;;;7.57;2.58;;;;;;;23.59;58.00;101757.88;10216044;28;20524;-69
2022/06/12 16:43:49;;;;;;;7.53;2.00;;;;;;;23.25;57.06;101766.22;10202750;28;20084;-70
2022/06/12 16:48:46;;;;;;;8.52;2.90;;;;;;;23.57;58.35;101765.81;10205928;28;20243;-69
2022/06/12 16:53:42;;;;;;;6.03;1.60;;;;;;;23.75;49.36;101766.03;10207100;28;20145;-70
2022/06/12 16:58:39;;;;;;;7.13;2.05;;;;;;;23.79;46.94;101771.66;10204027;28;20136;-70
2022/06/12 17:03:35;;;;;;;8.40;2.50;;;;;;;23.92;45.74;101761.81;10210322;28;20041;-70
2022/06/12 17:08:32;;;;;;;9.82;2.08;;;;;;;23.62;47.10;101773.03;10220486;28;20041;-69
2022/06/12 17:13:29;;;;;;;9.15;2.15;;;;;;;22.77;45.24;101767.97;10219728;28;20092;-68
2022/06/12 17:23:40;;;;;;;9.75;2.10;;;;;;;21.81;50.71;101779.88;10191801;28;20053;-68
2022/06/12 17:28:37;;;;;;;9.23;2.63;;;;;;;21.19;49.14;101793.75;10189089;28;20041;-67
2022/06/12 17:33:33;;;;;;;7.53;1.88;;;;;;;21.82;49.30;101787.06;10203466;28;20480;-67
2022/06/12 17:38:30;;;;;;;6.70;1.27;;;;;;;22.71;46.84;101789.78;10198886;28;20058;-66
2022/06/12 17:43:27;;;;;;;9.07;1.80;;;;;;;23.34;46.61;101787.47;10210370;28;20080;-67
2022/06/12 17:48:23;;;;;;;9.30;1.85;;;;;;;23.07;48.94;101804.28;10211187;28;20520;-67
2022/06/12 17:53:21;;;;;;;10.43;2.38;;;;;;;22.98;48.74;101800.94;10207640;28;20049;-68
2022/06/12 17:58:17;;;;;;;7.43;2.55;;;;;;;22.50;47.21;101795.03;10211234;28;20046;-68
2022/06/12 18:03:14;;;;;;;7.25;2.85;;;;;;;21.67;48.74;101803.88;10201191;28;20054;-68
2022/06/12 18:08:12;;;;;;;7.78;1.83;;;;;;;20.99;52.31;101800.44;10206735;28;20053;-68
2022/06/12 18:13:08;;;;;;;6.32;2.20;;;;;;;20.64;57.80;101801.22;10196499;28;20158;-67
2022/06/12 18:23:26;;;;;;;7.18;1.75;;;;;;;20.06;64.64;101803.72;10199959;28;20179;-68
2022/06/12 18:28:22;;;;;;;11.70;2.47;;;;;;;19.79;70.08;101808.94;10207552;28;20045;-68
2022/06/12 18:33:19;;;;;;;7.78;2.10;;;;;;;19.52;75.51;101808.56;10202281;28;20041;-68
2022/06/12 18:38:16;;;;;;;10.48;2.10;;;;;;;19.05;84.38;101806.41;10206164;28;20050;-68
2022/06/12 18:43:13;;;;;;;9.50;2.33;;;;;;;18.84;87.62;101812.06;10203460;28;21346;-67
2022/06/12 18:48:11;;;;;;;11.02;2.80;;;;;;;18.82;89.07;101819.09;10201011;28;20045;-68
2022/06/12 18:53:08;;;;;;;10.88;2.83;;;;;;;18.80;91.38;101815.88;10202228;28;20191;-67
2022/06/12 18:58:06;;;;;;;6.85;1.95;;;;;;;18.65;93.31;101804.31;10196952;28;20502;-67
2022/06/12 19:03:03;;;;;;;8.45;1.95;;;;;;;18.72;92.94;101810.06;10204115;28;20045;-68
2022/06/12 19:08:00;;;;;;;11.02;3.30;;;;;;;18.40;96.57;101802.69;10166194;28;1025944;-68
2022/06/12 19:12:57;;;;;;;8.32;2.58;;;;;;;18.45;96.48;101808.00;10211043;28;20065;-67
2022/06/12 19:17:53;;;;;;;8.75;3.17;;;;;;;18.20;97.17;101799.69;10212735;28;20140;-67
2022/06/12 19:22:50;;;;;;;10.95;2.67;;;;;;;18.03;98.30;101819.22;10207222;28;20147;-67
2022/06/12 19:27:47;;;;;;;13.20;2.53;;;;;;;17.79;99.01;101829.03;10219686;28;20081;-68
2022/06/12 19:32:43;;;;;;;9.60;2.58;;;;;;;17.73;100.00;101829.59;10220134;28;20045;-67
2022/06/12 19:37:43;;;;;;;11.13;2.38;;;;;;;17.43;100.00;101830.50;10205245;28;20461;-67
2022/06/12 19:42:40;;;;;;;15.23;3.78;;;;;;;17.36;100.00;101838.53;10206042;28;20045;-68
2022/06/12 19:47:37;;;;;;;11.27;3.03;;;;;;;17.35;100.00;101836.91;10196508;28;20096;-67
2022/06/12 19:52:33;;;;;;;15.10;4.07;;;;;;;17.18;100.00;101839.81;10209168;28;20412;-67
2022/06/12 19:57:30;;;;;;;13.60;4.32;;;;;;;17.15;100.00;101848.75;10206259;28;20519;-69
2022/06/12 20:02:28;;;;;;;10.82;3.35;;;;;;;17.00;100.00;101850.94;10186415;28;20708;-69
2022/06/12 20:07:27;;;;;;;12.73;2.90;;;;;;;16.92;100.00;101857.34;10191909;28;20597;-69
2022/06/12 20:12:25;;;;;;;9.90;2.47;;;;;;;16.81;100.00;101845.06;10191449;28;20046;-69
2022/06/12 20:17:22;;;;;;;11.93;3.15;;;;;;;16.86;100.00;101846.81;10195419;28;20050;-70
2022/06/12 20:22:19;;;;;;;17.08;4.22;;;;;;;16.81;100.00;101837.56;10196315;28;20115;-69
2022/06/12 20:27:16;;;;;;;14.43;3.22;;;;;;;16.53;100.00;101839.16;10208578;28;20084;-70
2022/06/12 20:32:13;;;;;;;12.05;3.50;;;;;;;16.32;100.00;101831.59;10219241;28;20572;-70
2022/06/12 20:37:11;;;;;;;12.23;4.35;;;;;;;16.33;100.00;101832.41;10216660;28;20052;-66
2022/06/12 20:42:07;;;;;;;13.57;3.95;;;;;;;16.35;100.00;101833.69;10223008;28;20096;-69
2022/06/12 20:47:04;;;;;;;13.93;3.58;;;;;;;16.28;100.00;101838.09;10220033;28;20072;-70
2022/06/12 20:52:00;;;;;;;15.30;3.63;;;;;;;16.09;100.00;101836.53;10225331;28;20112;-70
2022/06/12 20:56:57;;;;;;;12.23;3.28;;;;;;;15.91;100.00;101848.72;10228486;28;20484;-71
2022/06/12 21:01:54;;;;;;;14.70;3.53;;;;;;;15.89;100.00;101851.00;10229437;28;20081;-70
2022/06/12 21:06:52;;;;;;;22.75;4.90;;;;;;;15.71;100.00;101848.28;10228640;28;20046;-70
2022/06/12 21:11:49;;;;;;;17.80;4.90;;;;;;;15.55;100.00;101847.09;10227813;28;20107;-70
2022/06/12 21:16:48;;;;;;;22.40;4.75;;;;;;;15.58;100.00;101840.94;10224383;28;20050;-70
2022/06/12 21:21:44;;;;;;;19.70;3.90;;;;;;;15.59;100.00;101842.53;10229330;28;20509;-70
2022/06/12 21:26:41;;;;;;;13.40;3.28;;;;;;;15.67;100.00;101847.25;10221483;28;20065;-70
2022/06/12 21:31:37;;;;;;;14.35;4.75;;;;;;;15.70;100.00;101841.13;10228877;28;20144;-71
2022/06/12 21:36:34;;;;;;;12.85;3.78;;;;;;;15.61;100.00;101837.53;10201150;28;20593;-71
2022/06/12 21:41:30;;;;;;;13.45;3.75;;;;;;;15.54;100.00;101831.69;10223653;28;20128;-69
2022/06/12 21:46:27;;;;;;;13.60;3.80;;;;;;;15.58;100.00;101836.22;10223047;28;20038;-70
2022/06/12 21:56:42;;;;;;;13.82;3.60;;;;;;;15.40;100.00;101828.28;10222330;28;20467;-70
2022/06/12 22:01:44;;;;;;;15.60;4.53;;;;;;;15.23;100.00;101832.66;10212929;28;20136;-70
2022/06/12 22:06:41;;;;;;;14.88;3.80;;;;;;;15.19;100.00;101826.16;10217671;28;20072;-70
2022/06/12 22:11:38;;;;;;;14.90;4.03;;;;;;;15.23;100.00;101827.13;10227855;28;20053;-70
2022/06/12 22:16:34;;;;;;;18.38;4.75;;;;;;;15.19;100.00;101819.84;10221060;28;20605;-70
2022/06/12 22:21:31;;;;;;;14.50;4.38;;;;;;;15.12;100.00;101820.31;10218909;28;20041;-70
2022/06/12 22:26:27;;;;;;;16.25;3.15;;;;;;;15.16;100.00;101821.31;10213311;28;20124;-70
2022/06/12 22:31:24;;;;;;;12.27;3.60;;;;;;;15.19;100.00;101817.88;10217795;28;20054;-71
2022/06/12 22:36:21;;;;;;;21.67;5.05;;;;;;;15.24;100.00;101806.72;10226265;28;20472;-70
2022/06/12 22:41:18;;;;;;;15.38;4.07;;;;;;;15.13;100.00;101810.91;10220251;28;20114;-70
2022/06/12 22:46:16;;;;;;;15.65;4.20;;;;;;;15.08;100.00;101808.31;10223209;28;20121;-71
2022/06/12 22:51:13;;;;;;;10.55;3.60;;;;;;;15.07;100.00;101806.69;10202407;28;20041;-70
2022/06/12 22:56:09;;;;;;;17.30;4.05;;;;;;;15.10;100.00;101795.03;10195802;28;20552;-71
2022/06/12 23:01:08;;;;;;;13.63;3.80;;;;;;;15.06;100.00;101805.06;10204601;28;20136;-70
2022/06/12 23:06:05;;;;;;;18.05;4.75;;;;;;;15.07;100.00;101802.00;10202075;28;20060;-70
2022/06/12 23:11:02;;;;;;;17.25;4.50;;;;;;;14.99;100.00;101793.72;10200951;28;20446;-70
2022/06/12 23:15:58;;;;;;;17.35;4.38;;;;;;;14.97;100.00;101795.97;10198592;28;20596;-70
2022/06/12 23:21:15;;;;;;;13.15;4.20;;;;;;;14.92;100.00;101778.50;10199604;28;20041;-70
2022/06/12 23:26:14;;;;;;;13.20;4.22;;;;;;;14.89;100.00;101772.81;10199288;28;20471;-70
2022/06/12 23:31:17;;;;;;;14.80;3.60;;;;;;;14.92;100.00;101766.66;10212805;28;20077;-70
2022/06/12 23:36:14;;;;;;;13.23;3.72;;;;;;;14.87;100.00;101769.56;10220337;28;20120;-70